Time;durP1;ratioP1;P1;durP2;ratioP2;P2;SDS_P1;SDS_P2;PMS_P1;PMS_P2;Temp;Humidity;BMP_temperature;BMP_pressure;BME280_temperature;BME280_humidity;BME280_pressure;Samples;Min_cycle;Max_cycle;Signal;HPM_P1;HPM_P2
2023/08/10 03:02:35;;;;;;;;;;;13.70;99.90;;;;;;5008058;23;19934;-74
2023/08/10 03:05:00;;;;;;;;;;;13.70;99.90;;;;;;4960406;28;19957;-77
2023/08/10 03:07:27;;;;;;;;;;;13.70;99.90;;;;;;4977707;28;19922;-74
2023/08/10 03:09:53;;;;;;;;;;;13.60;99.90;;;;;;4960639;28;19926;-77
2023/08/10 03:12:19;;;;;;;;;;;13.70;99.90;;;;;;4995065;28;20061;-77
2023/08/10 03:14:44;;;;;;;;;;;13.70;99.90;;;;;;4997093;28;19954;-74
2023/08/10 03:17:10;;;;;;;;;;;13.70;99.90;;;;;;4979474;28;19921;-76
2023/08/10 03:19:36;;;;;;;;;;;13.70;99.90;;;;;;4979653;28;19922;-75
2023/08/10 03:22:01;;;;;;;;;;;13.70;99.90;;;;;;4979266;28;19972;-75
2023/08/10 03:24:27;;;;;;;;;;;13.80;99.90;;;;;;4996671;28;19922;-76
2023/08/10 03:26:52;;;;;;;;;;;13.80;99.90;;;;;;4979739;28;20000;-74
2023/08/10 03:29:18;;;;;;;;;;;13.80;99.90;;;;;;4978974;28;20444;-75
2023/08/10 03:31:43;;;;;;;;;;;13.70;99.90;;;;;;4979144;28;19929;-76
2023/08/10 03:34:09;;;;;;;;;;;13.80;99.90;;;;;;4979171;28;19926;-76
2023/08/10 03:36:35;;;;;;;;;;;13.80;99.90;;;;;;4979447;28;19929;-75
2023/08/10 03:39:00;;;;;;;;;;;13.80;99.90;;;;;;4979154;28;19922;-76
2023/08/10 03:41:26;;;;;;;;;;;13.80;99.90;;;;;;4962902;28;19929;-78
2023/08/10 03:43:51;;;;;;;;;;;13.80;99.90;;;;;;4979163;28;20004;-76
2023/08/10 03:46:17;;;;;;;;;;;13.80;99.90;;;;;;4979084;28;20024;-75
2023/08/10 03:48:42;;;;;;;;;;;13.80;99.90;;;;;;4996239;28;19922;-74
2023/08/10 03:51:08;;;;;;;;;;;13.80;99.90;;;;;;4978606;28;20013;-74
2023/08/10 03:53:33;;;;;;;;;;;13.90;99.90;;;;;;4978940;28;19922;-77
2023/08/10 03:55:59;;;;;;;;;;;13.90;99.90;;;;;;4996660;28;19928;-75
2023/08/10 03:58:24;;;;;;;;;;;13.80;99.90;;;;;;4979325;28;20352;-75
2023/08/10 04:00:50;;;;;;;;;;;13.90;99.90;;;;;;4978760;28;19922;-76
2023/08/10 04:03:16;;;;;;;;;;;13.90;99.90;;;;;;4979121;28;20270;-78
2023/08/10 04:05:41;;;;;;;;;;;13.90;99.90;;;;;;4978285;28;20381;-75
2023/08/10 04:08:08;;;;;;;;;;;13.90;99.90;;;;;;4978712;28;20017;-76
2023/08/10 04:10:34;;;;;;;;;;;13.90;99.90;;;;;;4978467;28;20024;-78
2023/08/10 04:13:02;;;;;;;;;;;13.90;99.90;;;;;;4978445;28;19980;-76
2023/08/10 04:15:28;;;;;;;;;;;13.90;99.90;;;;;;4995712;28;19922;-76
2023/08/10 04:17:53;;;;;;;;;;;13.90;99.90;;;;;;4978490;28;19956;-75
2023/08/10 04:20:19;;;;;;;;;;;13.90;99.90;;;;;;4995832;28;20012;-76
2023/08/10 04:22:45;;;;;;;;;;;13.90;99.90;;;;;;4978166;28;20301;-77
2023/08/10 04:25:11;;;;;;;;;;;13.90;99.90;;;;;;4978168;28;20008;-75
2023/08/10 04:27:37;;;;;;;;;;;14.00;99.90;;;;;;4978128;28;19921;-76
2023/08/10 04:30:04;;;;;;;;;;;13.90;99.90;;;;;;4995820;28;19925;-76
2023/08/10 04:32:29;;;;;;;;;;;14.00;99.90;;;;;;4994847;28;19973;-76
2023/08/10 04:34:55;;;;;;;;;;;13.90;99.90;;;;;;4978714;28;20013;-75
2023/08/10 04:37:20;;;;;;;;;;;13.90;99.90;;;;;;4978337;28;19929;-75
2023/08/10 04:39:46;;;;;;;;;;;13.90;99.90;;;;;;4978410;28;20341;-76
2023/08/10 04:42:12;;;;;;;;;;;13.90;99.90;;;;;;4995512;28;20286;-75
2023/08/10 04:44:37;;;;;;;;;;;13.90;99.90;;;;;;4995638;28;19928;-76
2023/08/10 04:47:04;;;;;;;;;;;13.90;99.90;;;;;;4978184;28;19929;-77
2023/08/10 04:49:30;;;;;;;;;;;13.90;99.90;;;;;;4995391;28;19989;-75
2023/08/10 04:51:56;;;;;;;;;;;13.90;99.90;;;;;;4977960;28;19922;-76
2023/08/10 04:54:22;;;;;;;;;;;13.90;99.90;;;;;;4978149;28;20387;-75
2023/08/10 04:56:48;;;;;;;;;;;13.90;99.90;;;;;;4995744;28;19922;-76
2023/08/10 04:59:13;;;;;;;;;;;13.90;99.90;;;;;;4977835;28;20346;-77
2023/08/10 05:01:39;;;;;;;;;;;13.90;99.90;;;;;;4977431;28;19965;-76
2023/08/10 05:04:05;;;;;;;;;;;13.90;99.90;;;;;;4978231;28;19925;-75
2023/08/10 05:06:31;;;;;;;;;;;13.90;99.90;;;;;;4977728;28;19922;-78
2023/08/10 05:08:57;;;;;;;;;;;13.90;99.90;;;;;;4977890;28;20270;-77
2023/08/10 05:11:23;;;;;;;;;;;13.90;99.90;;;;;;4977439;28;19926;-75
2023/08/10 05:13:48;;;;;;;;;;;13.90;99.90;;;;;;4995024;28;19922;-76
2023/08/10 05:16:15;;;;;;;;;;;13.90;99.90;;;;;;4977369;28;19926;-74
2023/08/10 05:18:40;;;;;;;;;;;14.00;99.90;;;;;;4977363;28;20288;-76
2023/08/10 05:21:06;;;;;;;;;;;14.00;99.90;;;;;;4977164;28;19922;-74
2023/08/10 05:23:32;;;;;;;;;;;14.00;99.90;;;;;;4977441;28;19922;-77
2023/08/10 05:25:58;;;;;;;;;;;14.00;99.90;;;;;;4994927;28;19928;-76
2023/08/10 05:28:23;;;;;;;;;;;14.00;99.90;;;;;;4995047;28;19922;-74
2023/08/10 05:30:49;;;;;;;;;;;14.00;99.90;;;;;;4960926;28;20389;-75
2023/08/10 05:33:14;;;;;;;;;;;14.00;99.90;;;;;;4994745;28;20378;-74
2023/08/10 05:35:40;;;;;;;;;;;14.10;99.90;;;;;;4977166;28;20341;-77
2023/08/10 05:38:06;;;;;;;;;;;14.20;99.90;;;;;;4992490;28;19926;-77
2023/08/10 05:40:33;;;;;;;;;;;14.20;99.90;;;;;;4986727;28;19927;-74
2023/08/10 05:42:58;;;;;;;;;;;14.20;99.90;;;;;;4995492;28;19922;-79
2023/08/10 05:45:25;;;;;;;;;;;14.30;99.90;;;;;;4976868;28;19925;-75
2023/08/10 05:47:51;;;;;;;;;;;14.30;99.90;;;;;;4976984;28;19929;-76
2023/08/10 05:50:17;;;;;;;;;;;14.30;99.90;;;;;;4977739;28;19930;-76
2023/08/10 05:52:43;;;;;;;;;;;14.40;99.90;;;;;;4976793;28;19949;-76
2023/08/10 05:55:09;;;;;;;;;;;14.40;99.90;;;;;;4975589;28;20025;-75
2023/08/10 05:57:35;;;;;;;;;;;14.50;99.90;;;;;;4976364;28;19926;-76
2023/08/10 06:00:00;;;;;;;;;;;14.50;99.90;;;;;;4975135;28;19997;-76
2023/08/10 06:02:27;;;;;;;;;;;14.60;99.90;;;;;;4977702;28;19922;-76
2023/08/10 06:04:52;;;;;;;;;;;14.60;99.90;;;;;;4976820;28;19925;-77
2023/08/10 06:07:18;;;;;;;;;;;14.70;99.90;;;;;;4977424;28;19929;-77
2023/08/10 06:09:44;;;;;;;;;;;14.70;99.90;;;;;;4994290;28;19965;-76
2023/08/10 06:12:10;;;;;;;;;;;14.70;99.90;;;;;;4961105;28;19926;-77
2023/08/10 06:14:36;;;;;;;;;;;14.80;99.90;;;;;;4977318;28;19922;-78
2023/08/10 06:17:04;;;;;;;;;;;14.80;99.90;;;;;;4995346;28;19921;-77
2023/08/10 06:19:30;;;;;;;;;;;14.80;99.90;;;;;;4977353;28;20281;-77
2023/08/10 06:21:56;;;;;;;;;;;14.90;99.90;;;;;;4961380;28;19922;-76
2023/08/10 06:24:22;;;;;;;;;;;14.80;99.90;;;;;;4977405;28;20326;-75
2023/08/10 06:26:48;;;;;;;;;;;14.90;99.90;;;;;;4977468;28;20369;-77
2023/08/10 06:29:14;;;;;;;;;;;14.90;99.90;;;;;;4995267;28;19945;-76
2023/08/10 06:31:40;;;;;;;;;;;14.90;99.90;;;;;;4980427;28;19935;-76
2023/08/10 06:34:06;;;;;;;;;;;15.00;99.90;;;;;;4997913;28;20301;-77
2023/08/10 06:36:31;;;;;;;;;;;15.00;99.90;;;;;;4980520;28;19922;-76
2023/08/10 06:38:57;;;;;;;;;;;15.10;99.90;;;;;;4980244;28;19929;-78
2023/08/10 06:41:23;;;;;;;;;;;15.10;99.90;;;;;;4980235;28;19921;-77
2023/08/10 06:43:49;;;;;;;;;;;15.20;99.90;;;;;;4979944;28;19973;-78
2023/08/10 06:46:15;;;;;;;;;;;15.20;99.90;;;;;;4981338;28;19961;-77
2023/08/10 06:48:40;;;;;;;;;;;15.30;99.90;;;;;;4997723;28;19928;-76
2023/08/10 06:51:06;;;;;;;;;;;15.30;99.90;;;;;;4998019;28;20008;-76
2023/08/10 06:53:33;;;;;;;;;;;15.30;99.90;;;;;;4979760;28;20012;-76
2023/08/10 06:55:59;;;;;;;;;;;15.30;99.90;;;;;;4980118;28;19970;-77
2023/08/10 06:58:24;;;;;;;;;;;15.30;99.90;;;;;;4997596;28;20309;-77
2023/08/10 07:00:50;;;;;;;;;;;15.40;99.90;;;;;;4979857;28;19925;-77
2023/08/10 07:03:16;;;;;;;;;;;15.50;99.90;;;;;;4980014;28;20333;-76
2023/08/10 07:05:42;;;;;;;;;;;15.50;99.90;;;;;;4979765;28;20365;-75
2023/08/10 07:08:08;;;;;;;;;;;15.50;99.90;;;;;;4997035;28;20000;-76
2023/08/10 07:10:34;;;;;;;;;;;15.60;99.90;;;;;;4979649;28;20021;-77
2023/08/10 07:13:00;;;;;;;;;;;15.60;99.90;;;;;;4997273;28;19929;-76
2023/08/10 07:15:25;;;;;;;;;;;15.60;99.90;;;;;;4997106;28;19922;-76
2023/08/10 07:17:51;;;;;;;;;;;15.70;99.90;;;;;;4979730;28;20020;-76
2023/08/10 07:20:18;;;;;;;;;;;15.70;99.90;;;;;;4979319;28;20393;-76
2023/08/10 07:22:45;;;;;;;;;;;15.80;99.90;;;;;;4997348;28;20036;-76
2023/08/10 07:25:16;;;;;;;;;;;15.80;99.90;;;;;;4979331;28;19928;-76
2023/08/10 07:27:43;;;;;;;;;;;15.90;99.90;;;;;;4979184;28;20390;-77
2023/08/10 07:30:09;;;;;;;;;;;15.90;99.90;;;;;;4979133;28;20440;-76
2023/08/10 07:32:34;;;;;;;;;;;16.00;99.90;;;;;;4979400;28;19932;-76
2023/08/10 07:35:00;;;;;;;;;;;16.00;99.90;;;;;;4979138;28;20432;-76
2023/08/10 07:37:25;;;;;;;;;;;16.10;99.90;;;;;;4979155;28;19929;-76
2023/08/10 07:39:51;;;;;;;;;;;16.10;99.90;;;;;;4996258;28;19928;-76
2023/08/10 07:42:16;;;;;;;;;;;16.10;99.90;;;;;;4979070;28;19926;-77
2023/08/10 07:44:42;;;;;;;;;;;16.10;99.90;;;;;;4978706;28;19925;-77
2023/08/10 07:47:08;;;;;;;;;;;16.20;99.90;;;;;;4996687;28;19977;-76
2023/08/10 07:49:33;;;;;;;;;;;16.20;99.90;;;;;;4978739;28;20397;-77
2023/08/10 07:51:59;;;;;;;;;;;16.20;99.90;;;;;;4978782;28;19978;-77
2023/08/10 07:54:25;;;;;;;;;;;16.30;99.90;;;;;;4978595;28;19972;-75
2023/08/10 07:56:50;;;;;;;;;;;16.30;99.90;;;;;;4978840;28;19929;-77
2023/08/10 07:59:16;;;;;;;;;;;16.40;99.90;;;;;;4978987;28;19929;-76
2023/08/10 08:01:42;;;;;;;;;;;16.40;99.90;;;;;;4978400;28;19977;-76
2023/08/10 08:04:08;;;;;;;;;;;16.40;99.90;;;;;;4978306;28;20004;-76
2023/08/10 08:06:34;;;;;;;;;;;16.50;99.90;;;;;;4996275;28;19928;-76
2023/08/10 08:09:00;;;;;;;;;;;16.60;99.90;;;;;;4978122;28;19928;-76
2023/08/10 08:11:25;;;;;;;;;;;16.60;99.90;;;;;;4978407;28;19925;-77
2023/08/10 08:13:51;;;;;;;;;;;16.60;99.90;;;;;;4978238;28;20101;-77
2023/08/10 08:16:16;;;;;;;;;;;16.60;99.90;;;;;;4962122;28;19934;-77
2023/08/10 08:18:55;;;;;;;;;;;16.60;99.90;;;;;;4996015;28;20374;-76
2023/08/10 08:21:21;;;;;;;;;;;16.70;99.90;;;;;;4978056;28;19929;-76
2023/08/10 08:23:47;;;;;;;;;;;16.70;99.90;;;;;;4995644;28;19929;-77
2023/08/10 08:26:14;;;;;;;;;;;16.80;99.90;;;;;;4978002;28;20461;-76
2023/08/10 08:28:40;;;;;;;;;;;16.90;99.90;;;;;;4977829;28;19961;-76
2023/08/10 08:31:06;;;;;;;;;;;16.90;99.90;;;;;;4977656;28;19975;-76
2023/08/10 08:33:32;;;;;;;;;;;17.00;99.90;;;;;;4978207;28;19926;-76
2023/08/10 08:35:57;;;;;;;;;;;17.00;99.90;;;;;;4961621;28;20392;-76
2023/08/10 08:38:24;;;;;;;;;;;17.00;99.90;;;;;;4977754;28;19925;-76
2023/08/10 08:40:50;;;;;;;;;;;17.00;99.90;;;;;;4995714;28;19928;-77
2023/08/10 08:43:15;;;;;;;;;;;17.00;99.90;;;;;;4995415;28;19921;-76
2023/08/10 08:45:41;;;;;;;;;;;17.00;99.90;;;;;;4995284;28;20298;-77
2023/08/10 08:48:07;;;;;;;;;;;17.00;99.90;;;;;;4977629;28;19929;-76
2023/08/10 08:50:34;;;;;;;;;;;17.00;99.90;;;;;;4977190;28;19981;-76
2023/08/10 08:53:00;;;;;;;;;;;17.00;99.90;;;;;;4994351;28;20329;-76
2023/08/10 08:55:26;;;;;;;;;;;17.10;99.90;;;;;;4977234;28;19922;-77
2023/08/10 08:57:52;;;;;;;;;;;17.10;99.90;;;;;;4977593;28;19922;-76
2023/08/10 09:00:18;;;;;;;;;;;17.10;99.90;;;;;;4977326;28;20013;-76
2023/08/10 09:02:43;;;;;;;;;;;17.10;99.90;;;;;;4977824;28;20024;-76
2023/08/10 09:05:09;;;;;;;;;;;17.10;99.90;;;;;;4995222;28;19926;-77
2023/08/10 09:07:34;;;;;;;;;;;17.10;99.90;;;;;;4977632;28;19925;-77
2023/08/10 09:10:00;;;;;;;;;;;17.10;99.90;;;;;;4977519;28;19973;-77
2023/08/10 09:12:29;;;;;;;;;;;17.10;99.90;;;;;;4977345;28;20385;-77
2023/08/10 09:15:04;;;;;;;;;;;17.10;99.90;;;;;;4977340;28;20021;-77
2023/08/10 09:17:30;;;;;;;;;;;17.20;99.90;;;;;;4977130;28;20370;-76
2023/08/10 09:19:56;;;;;;;;;;;17.20;99.90;;;;;;4977112;28;19922;-76
2023/08/10 09:22:51;;;;;;;;;;;17.30;99.90;;;;;;4960988;28;19921;-77
2023/08/10 09:25:17;;;;;;;;;;;17.30;99.90;;;;;;4986088;28;19997;-76
2023/08/10 09:27:43;;;;;;;;;;;17.40;99.90;;;;;;4977083;28;19922;-78
2023/08/10 09:30:09;;;;;;;;;;;17.40;99.90;;;;;;4976950;28;19933;-77
2023/08/10 09:32:35;;;;;;;;;;;17.40;99.90;;;;;;4976929;28;19926;-76
2023/08/10 09:35:01;;;;;;;;;;;17.40;99.90;;;;;;4976972;28;20382;-76
2023/08/10 09:37:27;;;;;;;;;;;17.40;99.90;;;;;;4994679;28;19929;-76
2023/08/10 09:39:54;;;;;;;;;;;17.40;99.90;;;;;;4977312;28;20400;-76
2023/08/10 09:42:19;;;;;;;;;;;17.40;99.90;;;;;;4977214;28;19951;-77
2023/08/10 09:44:46;;;;;;;;;;;17.40;99.90;;;;;;4976982;28;19929;-77
2023/08/10 09:47:12;;;;;;;;;;;17.40;99.90;;;;;;4976987;28;19922;-76
2023/08/10 09:49:39;;;;;;;;;;;17.30;99.90;;;;;;4994395;28;19922;-76
2023/08/10 09:52:06;;;;;;;;;;;17.40;99.90;;;;;;4977051;28;19932;-76
2023/08/10 09:54:31;;;;;;;;;;;17.30;99.90;;;;;;4985605;28;19922;-77
2023/08/10 09:56:57;;;;;;;;;;;17.40;99.90;;;;;;4966039;28;19922;-76
2023/08/10 09:59:23;;;;;;;;;;;17.40;99.90;;;;;;4970711;28;19921;-76
2023/08/10 10:01:49;;;;;;;;;;;17.40;99.90;;;;;;4991846;28;19928;-77
2023/08/10 10:04:15;;;;;;;;;;;17.50;99.90;;;;;;4977854;28;19926;-77
2023/08/10 10:06:41;;;;;;;;;;;17.50;99.90;;;;;;4980661;28;19973;-76
2023/08/10 10:09:07;;;;;;;;;;;17.60;99.90;;;;;;4981937;28;19922;-76
2023/08/10 10:11:32;;;;;;;;;;;17.60;99.90;;;;;;4980367;28;19926;-78
2023/08/10 10:13:58;;;;;;;;;;;17.70;99.90;;;;;;4997997;28;19922;-76
2023/08/10 10:16:24;;;;;;;;;;;17.70;99.90;;;;;;4997934;28;19922;-77
2023/08/10 10:18:50;;;;;;;;;;;17.70;99.90;;;;;;4980428;28;19922;-76
2023/08/10 10:21:16;;;;;;;;;;;17.80;99.90;;;;;;4964064;28;19922;-77
2023/08/10 10:23:41;;;;;;;;;;;17.90;99.90;;;;;;4980583;28;19922;-77
2023/08/10 10:26:07;;;;;;;;;;;17.90;99.90;;;;;;4980198;28;19977;-77
2023/08/10 10:28:33;;;;;;;;;;;18.00;99.90;;;;;;4980027;28;19922;-77
2023/08/10 10:30:58;;;;;;;;;;;18.10;99.90;;;;;;4980147;28;19965;-77
2023/08/10 10:33:25;;;;;;;;;;;18.10;99.90;;;;;;4997725;28;20289;-77
2023/08/10 10:36:10;;;;;;;;;;;18.20;99.90;;;;;;4980072;28;20441;-76
2023/08/10 10:38:39;;;;;;;;;;;18.20;99.90;;;;;;4980394;28;19949;-76
2023/08/10 10:41:15;;;;;;;;;;;18.30;99.90;;;;;;4980147;28;19926;-76
2023/08/10 10:43:44;;;;;;;;;;;18.40;99.90;;;;;;4998146;28;19926;-76
2023/08/10 10:46:28;;;;;;;;;;;18.50;99.90;;;;;;4997787;28;19921;-76
2023/08/10 10:48:53;;;;;;;;;;;18.40;99.90;;;;;;4980407;28;19921;-77
2023/08/10 10:51:21;;;;;;;;;;;18.50;99.90;;;;;;4980147;28;20398;-76
2023/08/10 10:53:47;;;;;;;;;;;18.60;99.90;;;;;;4997441;28;19968;-75
2023/08/10 10:56:13;;;;;;;;;;;18.60;99.90;;;;;;4979615;28;19921;-77
2023/08/10 10:58:40;;;;;;;;;;;18.60;99.90;;;;;;4979596;28;19933;-76
2023/08/10 11:01:05;;;;;;;;;;;18.70;99.90;;;;;;4979422;28;19925;-77
2023/08/10 11:03:31;;;;;;;;;;;18.80;99.90;;;;;;4980128;28;19921;-76
2023/08/10 11:05:56;;;;;;;;;;;18.90;99.90;;;;;;4979951;28;19922;-76
2023/08/10 11:08:22;;;;;;;;;;;18.90;99.90;;;;;;4979867;28;19921;-77
2023/08/10 11:10:51;;;;;;;;;;;18.90;99.90;;;;;;4979450;28;20338;-77
2023/08/10 11:13:17;;;;;;;;;;;19.00;99.90;;;;;;4954943;28;19978;-76
2023/08/10 11:15:45;;;;;;;;;;;19.00;99.90;;;;;;4978013;28;19926;-76
2023/08/10 11:18:11;;;;;;;;;;;19.10;99.90;;;;;;4978008;28;19922;-75
2023/08/10 11:20:48;;;;;;;;;;;19.10;99.90;;;;;;4960103;28;19926;-76
2023/08/10 11:23:14;;;;;;;;;;;19.20;99.90;;;;;;4943676;28;19922;-76
2023/08/10 11:25:49;;;;;;;;;;;19.20;99.90;;;;;;4959768;28;20362;-76
2023/08/10 11:28:16;;;;;;;;;;;19.20;99.90;;;;;;4966523;28;19926;-76
2023/08/10 11:30:42;;;;;;;;;;;19.20;99.90;;;;;;4978884;28;19969;-77
2023/08/10 11:33:08;;;;;;;;;;;19.20;99.90;;;;;;4978844;28;20377;-76
2023/08/10 11:35:34;;;;;;;;;;;19.20;99.90;;;;;;4979176;28;19926;-76
2023/08/10 11:37:59;;;;;;;;;;;19.30;99.90;;;;;;4979030;28;20397;-76
2023/08/10 11:40:25;;;;;;;;;;;19.30;99.90;;;;;;4996582;28;19922;-76
2023/08/10 11:43:04;;;;;;;;;;;19.40;99.90;;;;;;4962594;28;19922;-76
2023/08/10 11:45:30;;;;;;;;;;;19.40;99.90;;;;;;4978888;28;19959;-77
2023/08/10 11:47:57;;;;;;;;;;;19.50;99.90;;;;;;4979303;28;19922;-76
2023/08/10 11:50:24;;;;;;;;;;;19.50;99.90;;;;;;4978484;28;20377;-77
2023/08/10 11:52:49;;;;;;;;;;;19.70;99.90;;;;;;4978503;28;19921;-76
2023/08/10 11:55:16;;;;;;;;;;;19.70;99.90;;;;;;4978504;28;20060;-76
2023/08/10 11:57:43;;;;;;;;;;;19.70;99.90;;;;;;4978481;28;20377;-78
2023/08/10 12:00:19;;;;;;;;;;;19.70;99.90;;;;;;4978517;28;20000;-76
2023/08/10 12:03:03;;;;;;;;;;;19.70;99.90;;;;;;4978340;28;19929;-76
2023/08/10 12:05:34;;;;;;;;;;;19.80;99.90;;;;;;4962527;28;19921;-77
2023/08/10 12:08:01;;;;;;;;;;;19.90;99.90;;;;;;4978443;28;19922;-75
2023/08/10 12:10:32;;;;;;;;;;;19.90;99.90;;;;;;4978229;28;19929;-76
2023/08/10 12:12:58;;;;;;;;;;;19.90;99.90;;;;;;4996533;28;19984;-77
2023/08/10 12:15:23;;;;;;;;;;;20.00;99.90;;;;;;4995956;28;19921;-76
2023/08/10 12:17:49;;;;;;;;;;;20.10;99.90;;;;;;4978030;28;19921;-76
2023/08/10 12:20:15;;;;;;;;;;;20.10;99.90;;;;;;4978035;28;19980;-76
2023/08/10 12:22:41;;;;;;;;;;;20.30;99.90;;;;;;4995316;28;19922;-77
2023/08/10 12:25:07;;;;;;;;;;;20.30;99.90;;;;;;4978001;28;19922;-76
2023/08/10 12:27:32;;;;;;;;;;;20.40;99.90;;;;;;4961077;28;19922;-77
2023/08/10 12:29:58;;;;;;;;;;;20.40;99.90;;;;;;4978051;28;19925;-77
2023/08/10 12:32:23;;;;;;;;;;;20.30;99.90;;;;;;4995393;28;19945;-76
2023/08/10 12:34:49;;;;;;;;;;;20.20;99.90;;;;;;4977837;28;20344;-76
2023/08/10 12:37:14;;;;;;;;;;;20.20;99.90;;;;;;4977712;28;20324;-76
2023/08/10 12:39:40;;;;;;;;;;;20.20;99.90;;;;;;4995703;28;20262;-76
2023/08/10 12:42:05;;;;;;;;;;;20.20;99.90;;;;;;4995331;28;20312;-75
2023/08/10 12:44:31;;;;;;;;;;;20.10;99.90;;;;;;4995150;28;20012;-77
2023/08/10 12:46:57;;;;;;;;;;;20.10;99.90;;;;;;4995857;28;20369;-76
2023/08/10 12:49:23;;;;;;;;;;;20.10;99.90;;;;;;4977853;28;19949;-77
2023/08/10 12:51:48;;;;;;;;;;;20.10;99.90;;;;;;4977405;28;20409;-76
2023/08/10 12:54:14;;;;;;;;;;;20.10;99.90;;;;;;4995028;28;20000;-76
2023/08/10 12:56:39;;;;;;;;;;;20.10;99.90;;;;;;4977676;28;19922;-77
2023/08/10 12:59:05;;;;;;;;;;;20.20;99.90;;;;;;4995307;28;19933;-78
2023/08/10 13:01:32;;;;;;;;;;;20.30;99.90;;;;;;4977217;28;19985;-77
2023/08/10 13:03:58;;;;;;;;;;;20.40;99.90;;;;;;4994628;28;19922;-76
2023/08/10 13:06:24;;;;;;;;;;;20.50;99.90;;;;;;4977598;28;19929;-76
2023/08/10 13:08:50;;;;;;;;;;;20.70;99.90;;;;;;4977352;28;19976;-77
2023/08/10 13:11:16;;;;;;;;;;;20.80;99.90;;;;;;4994485;28;19933;-76
2023/08/10 13:13:41;;;;;;;;;;;20.80;99.90;;;;;;4994512;28;19922;-76
2023/08/10 13:16:07;;;;;;;;;;;20.80;99.90;;;;;;4977501;28;19944;-77
2023/08/10 13:18:32;;;;;;;;;;;20.90;99.90;;;;;;4994499;28;19929;-77
2023/08/10 13:20:58;;;;;;;;;;;20.90;99.90;;;;;;4994197;28;19922;-77
2023/08/10 13:23:23;;;;;;;;;;;20.90;99.90;;;;;;4960919;28;19922;-76
2023/08/10 13:25:49;;;;;;;;;;;21.00;99.90;;;;;;4977156;28;19922;-77
2023/08/10 13:28:15;;;;;;;;;;;20.90;99.90;;;;;;4976980;28;19926;-76
2023/08/10 13:30:40;;;;;;;;;;;20.80;99.90;;;;;;4994168;28;20016;-76
2023/08/10 13:33:06;;;;;;;;;;;20.80;99.90;;;;;;4976595;28;19922;-75
2023/08/10 13:35:31;;;;;;;;;;;20.80;99.90;;;;;;4994611;28;19921;-76
2023/08/10 13:37:57;;;;;;;;;;;20.70;99.90;;;;;;4976798;28;19922;-76
2023/08/10 13:40:22;;;;;;;;;;;20.80;99.90;;;;;;4980758;28;19922;-75
2023/08/10 13:42:48;;;;;;;;;;;20.80;99.90;;;;;;4980849;28;19925;-76
2023/08/10 13:45:14;;;;;;;;;;;20.80;99.90;;;;;;4980816;28;19926;-76
2023/08/10 13:47:39;;;;;;;;;;;20.90;99.90;;;;;;4998154;28;19934;-76
2023/08/10 13:50:06;;;;;;;;;;;20.90;99.90;;;;;;4998337;28;19930;-76
2023/08/10 13:52:31;;;;;;;;;;;21.00;99.90;;;;;;4998228;28;19921;-77
2023/08/10 13:54:58;;;;;;;;;;;21.00;99.90;;;;;;4998150;28;20288;-77
2023/08/10 13:57:23;;;;;;;;;;;21.00;99.90;;;;;;4980509;28;19928;-76
2023/08/10 13:59:49;;;;;;;;;;;21.00;99.90;;;;;;4998534;28;19921;-76
2023/08/10 14:02:15;;;;;;;;;;;21.00;99.90;;;;;;4998395;28;20314;-77
2023/08/10 14:04:40;;;;;;;;;;;20.90;99.90;;;;;;4964498;28;19980;-77
2023/08/10 14:07:06;;;;;;;;;;;20.80;99.90;;;;;;4981331;28;19993;-78
2023/08/10 14:09:32;;;;;;;;;;;20.70;99.90;;;;;;4980930;28;20251;-77
2023/08/10 14:11:57;;;;;;;;;;;20.60;99.90;;;;;;4998112;28;20396;-76
2023/08/10 14:14:23;;;;;;;;;;;20.60;99.90;;;;;;4980458;28;19993;-77
2023/08/10 14:16:48;;;;;;;;;;;20.60;99.90;;;;;;4980302;28;20001;-76
2023/08/10 14:19:15;;;;;;;;;;;20.50;99.90;;;;;;4980156;28;19998;-77
2023/08/10 14:21:40;;;;;;;;;;;20.50;99.90;;;;;;4982648;28;19968;-76
2023/08/10 14:24:06;;;;;;;;;;;20.40;99.90;;;;;;4999782;28;20020;-77
2023/08/10 14:26:32;;;;;;;;;;;20.40;99.90;;;;;;4999501;28;19928;-77
2023/08/10 14:28:57;;;;;;;;;;;20.40;99.90;;;;;;4999524;28;20405;-75
2023/08/10 14:31:23;;;;;;;;;;;20.30;99.90;;;;;;4999349;28;19926;-77
2023/08/10 14:33:49;;;;;;;;;;;20.40;99.90;;;;;;4999451;28;19921;-77
2023/08/10 14:36:15;;;;;;;;;;;20.40;99.90;;;;;;4999523;28;19925;-78
2023/08/10 14:38:41;;;;;;;;;;;20.40;99.90;;;;;;5017128;28;19976;-76
2023/08/10 14:41:06;;;;;;;;;;;20.40;99.90;;;;;;4999331;28;19922;-77
2023/08/10 14:43:32;;;;;;;;;;;20.40;99.90;;;;;;4983186;28;19976;-77
2023/08/10 14:45:58;;;;;;;;;;;20.40;99.90;;;;;;4999250;28;19921;-76
2023/08/10 14:48:23;;;;;;;;;;;20.40;99.90;;;;;;5017340;28;19922;-76
2023/08/10 14:50:49;;;;;;;;;;;20.40;99.90;;;;;;5016430;28;19925;-76
2023/08/10 14:53:15;;;;;;;;;;;20.50;99.90;;;;;;4999084;28;19926;-75
2023/08/10 14:55:40;;;;;;;;;;;20.50;99.90;;;;;;4998926;28;19926;-76
2023/08/10 14:58:06;;;;;;;;;;;20.50;99.90;;;;;;4983020;28;19928;-77
2023/08/10 15:00:31;;;;;;;;;;;20.50;99.90;;;;;;5016967;28;19922;-76
2023/08/10 15:02:57;;;;;;;;;;;20.50;99.90;;;;;;5016969;28;19921;-75
2023/08/10 15:05:23;;;;;;;;;;;20.50;99.90;;;;;;5016640;28;19921;-77
2023/08/10 15:07:48;;;;;;;;;;;20.50;99.90;;;;;;4999174;28;19928;-76
2023/08/10 15:10:14;;;;;;;;;;;20.50;99.90;;;;;;4998906;28;20369;-76
2023/08/10 15:12:40;;;;;;;;;;;20.50;99.90;;;;;;4999319;28;19928;-76
2023/08/10 15:15:08;;;;;;;;;;;20.50;99.90;;;;;;5006483;28;20392;-76
2023/08/10 15:17:37;;;;;;;;;;;20.50;99.90;;;;;;4968936;28;20420;-77
2023/08/10 15:20:04;;;;;;;;;;;20.60;99.90;;;;;;4963427;28;20408;-76
2023/08/10 15:22:29;;;;;;;;;;;20.60;99.90;;;;;;4960035;28;19929;-77
2023/08/10 15:24:55;;;;;;;;;;;20.60;99.90;;;;;;4977373;28;20386;-75
2023/08/10 15:27:21;;;;;;;;;;;20.60;99.90;;;;;;4977204;28;20396;-76
2023/08/10 15:29:46;;;;;;;;;;;20.60;99.90;;;;;;4959471;28;19926;-77
2023/08/10 15:32:12;;;;;;;;;;;20.60;99.90;;;;;;4959908;28;19973;-76
2023/08/10 15:34:39;;;;;;;;;;;20.60;99.90;;;;;;4959317;28;20327;-77
2023/08/10 15:37:05;;;;;;;;;;;20.60;99.90;;;;;;4959514;28;19930;-75
2023/08/10 15:39:31;;;;;;;;;;;20.60;99.90;;;;;;4977066;28;19922;-76
2023/08/10 15:41:57;;;;;;;;;;;20.60;99.90;;;;;;4943433;28;19926;-76
2023/08/10 15:44:23;;;;;;;;;;;20.60;99.90;;;;;;4943366;28;19923;-75
2023/08/10 15:46:49;;;;;;;;;;;20.60;99.90;;;;;;4959679;28;19929;-76
2023/08/10 15:49:15;;;;;;;;;;;20.70;99.90;;;;;;4976726;28;20404;-76
2023/08/10 15:51:40;;;;;;;;;;;20.70;99.90;;;;;;4959215;28;20511;-77
2023/08/10 15:54:06;;;;;;;;;;;20.70;99.90;;;;;;4976842;28;19922;-76
2023/08/10 15:56:32;;;;;;;;;;;20.70;99.90;;;;;;4959154;28;19926;-76
2023/08/10 15:58:59;;;;;;;;;;;20.70;99.90;;;;;;4976343;28;20024;-76
2023/08/10 16:01:24;;;;;;;;;;;20.80;99.90;;;;;;4958570;28;19922;-76
2023/08/10 16:03:50;;;;;;;;;;;20.80;99.90;;;;;;4943023;28;19945;-77
2023/08/10 16:06:15;;;;;;;;;;;20.80;99.90;;;;;;4960133;28;20307;-77
2023/08/10 16:08:41;;;;;;;;;;;20.90;99.90;;;;;;4960803;28;20265;-75
2023/08/10 16:11:07;;;;;;;;;;;20.90;99.90;;;;;;4975464;28;19980;-76
2023/08/10 16:13:32;;;;;;;;;;;20.90;99.90;;;;;;4975772;28;19922;-76
2023/08/10 16:15:58;;;;;;;;;;;20.90;99.90;;;;;;4976098;28;20350;-76
2023/08/10 16:18:24;;;;;;;;;;;21.00;99.90;;;;;;4976533;28;19922;-77
2023/08/10 16:20:49;;;;;;;;;;;20.90;99.90;;;;;;4958775;28;19962;-76
2023/08/10 16:23:15;;;;;;;;;;;21.00;99.90;;;;;;4976187;28;19926;-77
2023/08/10 16:25:40;;;;;;;;;;;21.00;99.90;;;;;;4959225;28;19957;-78
2023/08/10 16:28:06;;;;;;;;;;;21.00;99.90;;;;;;4958796;28;20008;-77
2023/08/10 16:30:32;;;;;;;;;;;21.00;99.90;;;;;;4958570;28;19998;-77
2023/08/10 16:32:57;;;;;;;;;;;21.00;99.90;;;;;;4958713;28;19922;-78
2023/08/10 16:35:23;;;;;;;;;;;21.00;99.90;;;;;;4958489;28;19922;-77
2023/08/10 16:37:48;;;;;;;;;;;21.00;99.90;;;;;;4942426;28;20286;-75
2023/08/10 16:40:14;;;;;;;;;;;21.00;99.90;;;;;;4958372;28;19929;-77
2023/08/10 16:42:40;;;;;;;;;;;21.00;99.90;;;;;;4975758;28;19922;-76
2023/08/10 16:45:07;;;;;;;;;;;21.00;99.90;;;;;;4975642;28;19922;-77
2023/08/10 16:47:32;;;;;;;;;;;20.90;99.90;;;;;;4958368;28;20077;-77
2023/08/10 16:49:58;;;;;;;;;;;20.90;99.90;;;;;;4958071;28;20390;-77
2023/08/10 16:52:23;;;;;;;;;;;20.90;99.90;;;;;;4958498;28;19928;-77
2023/08/10 16:54:49;;;;;;;;;;;20.90;99.90;;;;;;4958107;28;20377;-77
2023/08/10 16:57:16;;;;;;;;;;;20.90;99.90;;;;;;4942249;28;19976;-76
2023/08/10 16:59:41;;;;;;;;;;;20.80;99.90;;;;;;4975948;28;20004;-76
2023/08/10 17:02:08;;;;;;;;;;;20.80;99.90;;;;;;4942272;28;19982;-77
2023/08/10 17:04:33;;;;;;;;;;;20.80;99.90;;;;;;4958272;28;20378;-77
2023/08/10 17:06:59;;;;;;;;;;;20.80;99.90;;;;;;4976022;28;19937;-77
2023/08/10 17:09:25;;;;;;;;;;;20.70;99.90;;;;;;4958378;28;19981;-77
2023/08/10 17:11:50;;;;;;;;;;;20.70;99.90;;;;;;4958307;28;20017;-76